sensor_id;sensor_type;location;lat;lon;timestamp;temperature;humidity
32139;DHT22;18644;48.700;9.210;2024-03-23T00:55:12;10.10;57.40
32139;DHT22;18644;48.700;9.210;2024-03-23T00:57:38;10.10;57.30
32139;DHT22;18644;48.700;9.210;2024-03-23T01:00:06;10.10;57.40
32139;DHT22;18644;48.700;9.210;2024-03-23T01:02:32;10.10;57.40
32139;DHT22;18644;48.700;9.210;2024-03-23T01:04:59;10.00;57.30
32139;DHT22;18644;48.700;9.210;2024-03-23T01:07:25;10.00;57.30
32139;DHT22;18644;48.700;9.210;2024-03-23T01:09:53;10.00;57.40
32139;DHT22;18644;48.700;9.210;2024-03-23T01:12:19;10.00;57.50
32139;DHT22;18644;48.700;9.210;2024-03-23T01:14:46;10.00;57.70
32139;DHT22;18644;48.700;9.210;2024-03-23T01:17:12;10.00;57.70
32139;DHT22;18644;48.700;9.210;2024-03-23T01:19:38;9.90;57.60
32139;DHT22;18644;48.700;9.210;2024-03-23T01:22:05;9.90;57.70
32139;DHT22;18644;48.700;9.210;2024-03-23T01:24:32;9.90;57.70
32139;DHT22;18644;48.700;9.210;2024-03-23T01:26:59;9.90;57.70
32139;DHT22;18644;48.700;9.210;2024-03-23T01:29:26;9.90;57.90
32139;DHT22;18644;48.700;9.210;2024-03-23T01:31:51;9.90;58.00
32139;DHT22;18644;48.700;9.210;2024-03-23T01:34:19;9.90;58.10
32139;DHT22;18644;48.700;9.210;2024-03-23T01:36:46;9.90;58.10
32139;DHT22;18644;48.700;9.210;2024-03-23T01:39:13;9.90;58.30
32139;DHT22;18644;48.700;9.210;2024-03-23T01:41:39;10.00;58.60
32139;DHT22;18644;48.700;9.210;2024-03-23T01:44:09;10.10;59.10
32139;DHT22;18644;48.700;9.210;2024-03-23T01:46:37;10.20;59.50
32139;DHT22;18644;48.700;9.210;2024-03-23T01:49:05;10.30;59.70
32139;DHT22;18644;48.700;9.210;2024-03-23T01:51:32;10.50;59.90
32139;DHT22;18644;48.700;9.210;2024-03-23T01:54:01;10.70;60.00
32139;DHT22;18644;48.700;9.210;2024-03-23T01:56:28;10.80;59.90
32139;DHT22;18644;48.700;9.210;2024-03-23T01:58:55;11.00;59.80
32139;DHT22;18644;48.700;9.210;2024-03-23T02:01:23;11.10;59.70
32139;DHT22;18644;48.700;9.210;2024-03-23T02:03:50;11.30;59.80
32139;DHT22;18644;48.700;9.210;2024-03-23T02:06:16;11.40;59.60
32139;DHT22;18644;48.700;9.210;2024-03-23T02:08:43;11.60;59.50
32139;DHT22;18644;48.700;9.210;2024-03-23T02:11:09;11.70;59.30
32139;DHT22;18644;48.700;9.210;2024-03-23T02:13:36;11.80;59.10
32139;DHT22;18644;48.700;9.210;2024-03-23T02:16:04;11.90;58.90
32139;DHT22;18644;48.700;9.210;2024-03-23T02:18:33;12.00;58.90
32139;DHT22;18644;48.700;9.210;2024-03-23T02:20:59;12.10;58.80
32139;DHT22;18644;48.700;9.210;2024-03-23T02:23:27;12.10;58.60
32139;DHT22;18644;48.700;9.210;2024-03-23T02:25:53;12.20;58.60
32139;DHT22;18644;48.700;9.210;2024-03-23T02:28:21;12.30;58.50
32139;DHT22;18644;48.700;9.210;2024-03-23T02:30:48;12.40;58.40
32139;DHT22;18644;48.700;9.210;2024-03-23T02:33:15;12.40;58.30
32139;DHT22;18644;48.700;9.210;2024-03-23T02:35:41;12.50;58.20
32139;DHT22;18644;48.700;9.210;2024-03-23T02:38:09;12.50;58.10
32139;DHT22;18644;48.700;9.210;2024-03-23T02:40:37;12.60;58.10
32139;DHT22;18644;48.700;9.210;2024-03-23T02:43:04;12.60;58.00
32139;DHT22;18644;48.700;9.210;2024-03-23T02:45:30;12.60;57.90
32139;DHT22;18644;48.700;9.210;2024-03-23T02:47:57;12.70;57.90
32139;DHT22;18644;48.700;9.210;2024-03-23T02:50:23;12.70;57.90
32139;DHT22;18644;48.700;9.210;2024-03-23T02:52:50;12.70;57.80
32139;DHT22;18644;48.700;9.210;2024-03-23T02:55:16;12.70;57.70
32139;DHT22;18644;48.700;9.210;2024-03-23T02:57:44;12.80;57.70
32139;DHT22;18644;48.700;9.210;2024-03-23T03:00:11;12.80;57.70
32139;DHT22;18644;48.700;9.210;2024-03-23T03:02:38;12.80;57.70
32139;DHT22;18644;48.700;9.210;2024-03-23T03:05:05;12.80;57.60
32139;DHT22;18644;48.700;9.210;2024-03-23T03:07:34;12.90;57.70
32139;DHT22;18644;48.700;9.210;2024-03-23T03:10:00;12.90;57.70
32139;DHT22;18644;48.700;9.210;2024-03-23T03:12:27;13.00;58.20
32139;DHT22;18644;48.700;9.210;2024-03-23T03:14:54;13.00;57.50
32139;DHT22;18644;48.700;9.210;2024-03-23T03:17:21;13.00;57.50
32139;DHT22;18644;48.700;9.210;2024-03-23T03:19:47;13.00;57.40
32139;DHT22;18644;48.700;9.210;2024-03-23T03:22:14;13.00;57.40
32139;DHT22;18644;48.700;9.210;2024-03-23T03:24:40;13.00;57.40
32139;DHT22;18644;48.700;9.210;2024-03-23T03:27:07;13.10;57.40
32139;DHT22;18644;48.700;9.210;2024-03-23T03:29:33;13.10;57.40
32139;DHT22;18644;48.700;9.210;2024-03-23T03:32:02;13.10;57.40
32139;DHT22;18644;48.700;9.210;2024-03-23T03:34:28;13.10;57.30
32139;DHT22;18644;48.700;9.210;2024-03-23T03:36:56;13.10;57.30
32139;DHT22;18644;48.700;9.210;2024-03-23T03:39:22;13.10;57.30
32139;DHT22;18644;48.700;9.210;2024-03-23T03:41:49;13.10;57.30
32139;DHT22;18644;48.700;9.210;2024-03-23T03:44:16;13.10;57.30
32139;DHT22;18644;48.700;9.210;2024-03-23T03:46:43;13.10;57.30
32139;DHT22;18644;48.700;9.210;2024-03-23T03:49:10;13.10;57.30
32139;DHT22;18644;48.700;9.210;2024-03-23T03:51:37;13.10;57.30
32139;DHT22;18644;48.700;9.210;2024-03-23T03:54:03;13.10;57.20
32139;DHT22;18644;48.700;9.210;2024-03-23T03:56:30;13.10;57.20
32139;DHT22;18644;48.700;9.210;2024-03-23T03:58:55;13.10;57.20
32139;DHT22;18644;48.700;9.210;2024-03-23T04:01:22;13.00;57.20
32139;DHT22;18644;48.700;9.210;2024-03-23T04:03:48;13.00;57.20
32139;DHT22;18644;48.700;9.210;2024-03-23T04:06:20;13.00;57.10
32139;DHT22;18644;48.700;9.210;2024-03-23T04:08:46;13.00;57.20
32139;DHT22;18644;48.700;9.210;2024-03-23T04:11:12;13.00;57.10
32139;DHT22;18644;48.700;9.210;2024-03-23T04:13:38;12.90;57.10
32139;DHT22;18644;48.700;9.210;2024-03-23T04:16:07;12.90;57.10
32139;DHT22;18644;48.700;9.210;2024-03-23T04:18:34;12.90;57.10
32139;DHT22;18644;48.700;9.210;2024-03-23T04:21:01;12.90;57.10
32139;DHT22;18644;48.700;9.210;2024-03-23T04:23:28;12.90;57.30
32139;DHT22;18644;48.700;9.210;2024-03-23T04:25:55;12.80;57.30
32139;DHT22;18644;48.700;9.210;2024-03-23T04:28:21;12.80;57.50
32139;DHT22;18644;48.700;9.210;2024-03-23T04:30:48;12.90;57.70
32139;DHT22;18644;48.700;9.210;2024-03-23T04:33:14;12.90;57.70
32139;DHT22;18644;48.700;9.210;2024-03-23T04:35:41;12.90;57.80
32139;DHT22;18644;48.700;9.210;2024-03-23T04:38:07;12.90;57.90
32139;DHT22;18644;48.700;9.210;2024-03-23T04:40:35;12.90;57.90
32139;DHT22;18644;48.700;9.210;2024-03-23T04:43:02;12.90;58.00
32139;DHT22;18644;48.700;9.210;2024-03-23T04:45:30;13.00;58.00
32139;DHT22;18644;48.700;9.210;2024-03-23T04:47:56;13.00;58.10
32139;DHT22;18644;48.700;9.210;2024-03-23T04:50:23;13.00;58.00
32139;DHT22;18644;48.700;9.210;2024-03-23T04:52:50;13.00;58.10
32139;DHT22;18644;48.700;9.210;2024-03-23T04:55:17;13.10;58.40
32139;DHT22;18644;48.700;9.210;2024-03-23T04:57:45;13.10;58.30
32139;DHT22;18644;48.700;9.210;2024-03-23T05:00:13;13.10;58.10
32139;DHT22;18644;48.700;9.210;2024-03-23T05:02:43;13.20;58.10
32139;DHT22;18644;48.700;9.210;2024-03-23T05:05:11;13.20;58.50
32139;DHT22;18644;48.700;9.210;2024-03-23T05:07:38;13.20;58.50
32139;DHT22;18644;48.700;9.210;2024-03-23T05:10:05;13.30;58.80
32139;DHT22;18644;48.700;9.210;2024-03-23T05:12:35;13.30;59.10
32139;DHT22;18644;48.700;9.210;2024-03-23T05:15:04;13.30;59.50
32139;DHT22;18644;48.700;9.210;2024-03-23T05:17:31;13.30;59.90
32139;DHT22;18644;48.700;9.210;2024-03-23T05:19:58;13.30;60.20
32139;DHT22;18644;48.700;9.210;2024-03-23T05:22:24;13.30;60.80
32139;DHT22;18644;48.700;9.210;2024-03-23T05:24:51;13.20;60.40
32139;DHT22;18644;48.700;9.210;2024-03-23T05:27:17;13.20;61.20
32139;DHT22;18644;48.700;9.210;2024-03-23T05:29:44;13.20;61.50
32139;DHT22;18644;48.700;9.210;2024-03-23T05:32:11;13.20;61.60
32139;DHT22;18644;48.700;9.210;2024-03-23T05:34:38;13.10;61.70
32139;DHT22;18644;48.700;9.210;2024-03-23T05:37:04;13.10;61.90
32139;DHT22;18644;48.700;9.210;2024-03-23T05:39:31;13.10;61.50
32139;DHT22;18644;48.700;9.210;2024-03-23T05:42:00;13.10;61.90
32139;DHT22;18644;48.700;9.210;2024-03-23T05:44:30;13.10;61.80
32139;DHT22;18644;48.700;9.210;2024-03-23T05:46:56;13.10;62.00
32139;DHT22;18644;48.700;9.210;2024-03-23T05:49:25;13.00;61.90
32139;DHT22;18644;48.700;9.210;2024-03-23T05:51:51;13.00;61.60
32139;DHT22;18644;48.700;9.210;2024-03-23T05:54:18;13.00;61.50
32139;DHT22;18644;48.700;9.210;2024-03-23T05:56:44;13.00;61.80
32139;DHT22;18644;48.700;9.210;2024-03-23T05:59:11;13.00;62.00
32139;DHT22;18644;48.700;9.210;2024-03-23T06:01:37;13.00;61.70
32139;DHT22;18644;48.700;9.210;2024-03-23T06:04:04;13.00;61.60
32139;DHT22;18644;48.700;9.210;2024-03-23T06:06:31;12.90;61.50
32139;DHT22;18644;48.700;9.210;2024-03-23T06:08:58;12.90;61.40
32139;DHT22;18644;48.700;9.210;2024-03-23T06:11:24;12.90;61.20
32139;DHT22;18644;48.700;9.210;2024-03-23T06:13:52;12.80;61.20
32139;DHT22;18644;48.700;9.210;2024-03-23T06:16:18;12.70;61.60
32139;DHT22;18644;48.700;9.210;2024-03-23T06:18:48;12.70;60.70
32139;DHT22;18644;48.700;9.210;2024-03-23T06:21:14;12.70;60.60
32139;DHT22;18644;48.700;9.210;2024-03-23T06:23:42;12.60;60.30
32139;DHT22;18644;48.700;9.210;2024-03-23T06:26:13;12.60;60.10
32139;DHT22;18644;48.700;9.210;2024-03-23T06:28:40;12.50;59.90
32139;DHT22;18644;48.700;9.210;2024-03-23T06:31:09;12.50;59.90
32139;DHT22;18644;48.700;9.210;2024-03-23T06:33:35;12.40;59.90
32139;DHT22;18644;48.700;9.210;2024-03-23T06:36:02;12.40;59.80
32139;DHT22;18644;48.700;9.210;2024-03-23T06:38:29;12.40;60.00
32139;DHT22;18644;48.700;9.210;2024-03-23T06:40:56;12.30;60.00
32139;DHT22;18644;48.700;9.210;2024-03-23T06:43:23;12.30;60.00
32139;DHT22;18644;48.700;9.210;2024-03-23T06:45:53;12.30;60.00
32139;DHT22;18644;48.700;9.210;2024-03-23T06:48:20;12.20;59.90
32139;DHT22;18644;48.700;9.210;2024-03-23T06:50:47;12.20;59.80
32139;DHT22;18644;48.700;9.210;2024-03-23T06:53:15;12.20;59.90
32139;DHT22;18644;48.700;9.210;2024-03-23T06:55:42;12.20;60.00
32139;DHT22;18644;48.700;9.210;2024-03-23T06:58:18;12.20;60.00
32139;DHT22;18644;48.700;9.210;2024-03-23T07:00:45;12.10;59.90
32139;DHT22;18644;48.700;9.210;2024-03-23T07:03:11;12.10;60.00
32139;DHT22;18644;48.700;9.210;2024-03-23T07:05:38;12.10;60.80
32139;DHT22;18644;48.700;9.210;2024-03-23T07:08:05;12.10;60.00
32139;DHT22;18644;48.700;9.210;2024-03-23T07:10:32;12.10;59.90
32139;DHT22;18644;48.700;9.210;2024-03-23T07:12:58;12.10;59.80
32139;DHT22;18644;48.700;9.210;2024-03-23T07:15:27;12.10;59.90
32139;DHT22;18644;48.700;9.210;2024-03-23T07:17:53;12.10;59.90
32139;DHT22;18644;48.700;9.210;2024-03-23T07:20:20;12.10;60.00
32139;DHT22;18644;48.700;9.210;2024-03-23T07:22:45;12.10;59.90
32139;DHT22;18644;48.700;9.210;2024-03-23T07:25:13;12.10;59.90
32139;DHT22;18644;48.700;9.210;2024-03-23T07:27:39;12.10;60.00
32139;DHT22;18644;48.700;9.210;2024-03-23T07:30:07;12.10;60.10
32139;DHT22;18644;48.700;9.210;2024-03-23T07:32:35;12.10;60.00
32139;DHT22;18644;48.700;9.210;2024-03-23T07:35:03;12.10;60.20
32139;DHT22;18644;48.700;9.210;2024-03-23T07:37:29;12.10;60.20
32139;DHT22;18644;48.700;9.210;2024-03-23T07:39:56;12.10;60.30
32139;DHT22;18644;48.700;9.210;2024-03-23T07:42:23;12.20;60.40
32139;DHT22;18644;48.700;9.210;2024-03-23T07:44:52;12.20;60.30
32139;DHT22;18644;48.700;9.210;2024-03-23T07:47:19;12.20;60.10
32139;DHT22;18644;48.700;9.210;2024-03-23T07:49:47;12.30;59.90
32139;DHT22;18644;48.700;9.210;2024-03-23T07:52:13;12.30;59.90
32139;DHT22;18644;48.700;9.210;2024-03-23T07:54:40;12.30;59.60
32139;DHT22;18644;48.700;9.210;2024-03-23T07:57:07;12.30;59.50
32139;DHT22;18644;48.700;9.210;2024-03-23T07:59:34;12.30;59.30
32139;DHT22;18644;48.700;9.210;2024-03-23T08:01:59;12.30;59.10
32139;DHT22;18644;48.700;9.210;2024-03-23T08:04:27;12.30;59.10
32139;DHT22;18644;48.700;9.210;2024-03-23T08:06:54;12.20;59.20
32139;DHT22;18644;48.700;9.210;2024-03-23T08:09:21;12.20;59.30
32139;DHT22;18644;48.700;9.210;2024-03-23T08:11:48;12.20;59.50
32139;DHT22;18644;48.700;9.210;2024-03-23T08:14:15;12.20;59.50
32139;DHT22;18644;48.700;9.210;2024-03-23T08:16:40;12.20;59.50
32139;DHT22;18644;48.700;9.210;2024-03-23T08:19:13;12.20;59.40
32139;DHT22;18644;48.700;9.210;2024-03-23T08:21:40;12.20;59.40
32139;DHT22;18644;48.700;9.210;2024-03-23T08:24:08;12.20;59.80
32139;DHT22;18644;48.700;9.210;2024-03-23T08:26:34;12.10;59.80
32139;DHT22;18644;48.700;9.210;2024-03-23T08:29:03;12.10;59.70
32139;DHT22;18644;48.700;9.210;2024-03-23T08:31:29;12.00;59.70
32139;DHT22;18644;48.700;9.210;2024-03-23T08:33:56;12.00;59.60
32139;DHT22;18644;48.700;9.210;2024-03-23T08:36:22;12.00;59.50
32139;DHT22;18644;48.700;9.210;2024-03-23T08:38:49;11.90;59.40
32139;DHT22;18644;48.700;9.210;2024-03-23T08:41:20;11.90;59.50
32139;DHT22;18644;48.700;9.210;2024-03-23T08:43:47;11.90;59.50
32139;DHT22;18644;48.700;9.210;2024-03-23T08:46:14;11.90;59.00
32139;DHT22;18644;48.700;9.210;2024-03-23T08:48:43;11.90;58.80
32139;DHT22;18644;48.700;9.210;2024-03-23T08:51:11;11.90;58.60
32139;DHT22;18644;48.700;9.210;2024-03-23T08:53:39;11.90;58.50
32139;DHT22;18644;48.700;9.210;2024-03-23T08:56:07;11.90;58.20
32139;DHT22;18644;48.700;9.210;2024-03-23T08:58:36;11.90;58.00
32139;DHT22;18644;48.700;9.210;2024-03-23T09:01:06;11.80;58.60
32139;DHT22;18644;48.700;9.210;2024-03-23T09:03:33;11.80;58.10
32139;DHT22;18644;48.700;9.210;2024-03-23T09:06:00;11.80;58.10
32139;DHT22;18644;48.700;9.210;2024-03-23T09:08:28;11.80;57.70
32139;DHT22;18644;48.700;9.210;2024-03-23T09:10:54;11.80;57.60
32139;DHT22;18644;48.700;9.210;2024-03-23T09:13:21;11.80;57.40
32139;DHT22;18644;48.700;9.210;2024-03-23T09:15:49;11.80;57.20
32139;DHT22;18644;48.700;9.210;2024-03-23T09:18:17;11.80;57.10
32139;DHT22;18644;48.700;9.210;2024-03-23T09:20:43;11.80;56.80
32139;DHT22;18644;48.700;9.210;2024-03-23T09:23:10;11.80;56.60
32139;DHT22;18644;48.700;9.210;2024-03-23T09:25:36;11.70;56.40
32139;DHT22;18644;48.700;9.210;2024-03-23T09:28:05;11.70;56.40
32139;DHT22;18644;48.700;9.210;2024-03-23T09:30:32;11.70;56.50
32139;DHT22;18644;48.700;9.210;2024-03-23T09:33:01;11.70;56.50
32139;DHT22;18644;48.700;9.210;2024-03-23T09:35:28;11.70;56.50
32139;DHT22;18644;48.700;9.210;2024-03-23T09:37:55;11.80;56.60
32139;DHT22;18644;48.700;9.210;2024-03-23T09:40:21;11.80;56.60
32139;DHT22;18644;48.700;9.210;2024-03-23T09:42:50;11.90;56.60
32139;DHT22;18644;48.700;9.210;2024-03-23T09:45:19;12.00;56.20
32139;DHT22;18644;48.700;9.210;2024-03-23T09:47:48;12.00;56.20
32139;DHT22;18644;48.700;9.210;2024-03-23T09:50:16;12.20;55.80
32139;DHT22;18644;48.700;9.210;2024-03-23T09:52:43;12.20;55.20
32139;DHT22;18644;48.700;9.210;2024-03-23T09:55:09;12.20;55.30
32139;DHT22;18644;48.700;9.210;2024-03-23T09:57:36;12.30;55.10
32139;DHT22;18644;48.700;9.210;2024-03-23T10:00:02;12.30;54.80
32139;DHT22;18644;48.700;9.210;2024-03-23T10:02:30;12.40;54.50
32139;DHT22;18644;48.700;9.210;2024-03-23T10:04:56;12.30;54.40
32139;DHT22;18644;48.700;9.210;2024-03-23T10:07:26;12.40;54.20
32139;DHT22;18644;48.700;9.210;2024-03-23T10:09:53;12.30;54.60
32139;DHT22;18644;48.700;9.210;2024-03-23T10:12:20;12.40;54.70
32139;DHT22;18644;48.700;9.210;2024-03-23T10:14:49;12.50;55.10
32139;DHT22;18644;48.700;9.210;2024-03-23T10:17:17;12.60;55.00
32139;DHT22;18644;48.700;9.210;2024-03-23T10:19:44;12.70;54.80
32139;DHT22;18644;48.700;9.210;2024-03-23T10:22:14;12.90;54.40
32139;DHT22;18644;48.700;9.210;2024-03-23T10:24:45;13.10;54.10
32139;DHT22;18644;48.700;9.210;2024-03-23T10:27:15;13.20;53.50
32139;DHT22;18644;48.700;9.210;2024-03-23T10:29:43;13.30;52.90
32139;DHT22;18644;48.700;9.210;2024-03-23T10:32:10;13.40;52.30
32139;DHT22;18644;48.700;9.210;2024-03-23T10:34:37;13.50;51.80
32139;DHT22;18644;48.700;9.210;2024-03-23T10:37:04;13.50;50.80
32139;DHT22;18644;48.700;9.210;2024-03-23T10:39:33;13.60;50.50
32139;DHT22;18644;48.700;9.210;2024-03-23T10:42:02;13.60;50.50
32139;DHT22;18644;48.700;9.210;2024-03-23T10:44:30;13.70;50.90
32139;DHT22;18644;48.700;9.210;2024-03-23T10:46:58;13.70;50.70
32139;DHT22;18644;48.700;9.210;2024-03-23T10:49:30;13.70;51.10
32139;DHT22;18644;48.700;9.210;2024-03-23T10:51:58;13.70;49.80
32139;DHT22;18644;48.700;9.210;2024-03-23T10:54:26;13.70;50.20
32139;DHT22;18644;48.700;9.210;2024-03-23T10:56:59;13.70;49.50
32139;DHT22;18644;48.700;9.210;2024-03-23T10:59:31;13.60;49.00
32139;DHT22;18644;48.700;9.210;2024-03-23T11:01:58;13.50;49.20
32139;DHT22;18644;48.700;9.210;2024-03-23T11:04:33;13.30;49.40
32139;DHT22;18644;48.700;9.210;2024-03-23T11:07:00;13.10;49.90
32139;DHT22;18644;48.700;9.210;2024-03-23T11:09:40;12.90;50.40
32139;DHT22;18644;48.700;9.210;2024-03-23T11:12:30;12.50;50.80
32139;DHT22;18644;48.700;9.210;2024-03-23T11:15:02;12.10;51.20
32139;DHT22;18644;48.700;9.210;2024-03-23T11:17:30;11.70;51.40
32139;DHT22;18644;48.700;9.210;2024-03-23T11:19:58;11.40;51.90
32139;DHT22;18644;48.700;9.210;2024-03-23T11:22:41;11.20;52.80
32139;DHT22;18644;48.700;9.210;2024-03-23T11:25:14;10.90;53.40
32139;DHT22;18644;48.700;9.210;2024-03-23T11:27:43;10.70;53.80
32139;DHT22;18644;48.700;9.210;2024-03-23T11:30:16;10.60;54.30
32139;DHT22;18644;48.700;9.210;2024-03-23T11:32:44;10.50;54.80
32139;DHT22;18644;48.700;9.210;2024-03-23T11:35:25;10.40;55.30
32139;DHT22;18644;48.700;9.210;2024-03-23T11:38:06;10.40;56.10
32139;DHT22;18644;48.700;9.210;2024-03-23T11:40:35;10.50;56.70
32139;DHT22;18644;48.700;9.210;2024-03-23T11:43:05;10.50;56.90
32139;DHT22;18644;48.700;9.210;2024-03-23T11:45:36;10.60;57.10
32139;DHT22;18644;48.700;9.210;2024-03-23T11:48:07;10.70;57.10
32139;DHT22;18644;48.700;9.210;2024-03-23T11:50:37;10.90;56.90
32139;DHT22;18644;48.700;9.210;2024-03-23T11:53:07;10.90;56.60
32139;DHT22;18644;48.700;9.210;2024-03-23T11:55:48;11.00;56.60
32139;DHT22;18644;48.700;9.210;2024-03-23T11:58:17;11.20;56.40
32139;DHT22;18644;48.700;9.210;2024-03-23T12:00:50;11.20;56.20
32139;DHT22;18644;48.700;9.210;2024-03-23T12:03:17;11.30;56.10
32139;DHT22;18644;48.700;9.210;2024-03-23T12:05:48;11.30;55.90
32139;DHT22;18644;48.700;9.210;2024-03-23T12:08:19;11.30;55.80
32139;DHT22;18644;48.700;9.210;2024-03-23T12:10:49;11.40;56.00
32139;DHT22;18644;48.700;9.210;2024-03-23T12:13:21;11.50;56.30
32139;DHT22;18644;48.700;9.210;2024-03-23T12:15:50;11.50;55.90
32139;DHT22;18644;48.700;9.210;2024-03-23T12:18:17;11.60;55.70
32139;DHT22;18644;48.700;9.210;2024-03-23T12:20:44;11.70;55.50
32139;DHT22;18644;48.700;9.210;2024-03-23T12:23:10;11.70;55.40
32139;DHT22;18644;48.700;9.210;2024-03-23T12:25:38;11.80;55.20
32139;DHT22;18644;48.700;9.210;2024-03-23T12:28:05;11.80;54.80
32139;DHT22;18644;48.700;9.210;2024-03-23T12:30:39;11.90;54.60
32139;DHT22;18644;48.700;9.210;2024-03-23T12:33:05;11.90;54.20
32139;DHT22;18644;48.700;9.210;2024-03-23T12:35:32;12.00;53.80
32139;DHT22;18644;48.700;9.210;2024-03-23T12:37:58;12.00;53.30
32139;DHT22;18644;48.700;9.210;2024-03-23T12:40:25;12.00;53.00
32139;DHT22;18644;48.700;9.210;2024-03-23T12:42:52;12.00;53.00
32139;DHT22;18644;48.700;9.210;2024-03-23T12:45:19;12.00;53.00
32139;DHT22;18644;48.700;9.210;2024-03-23T12:47:46;12.00;53.30
32139;DHT22;18644;48.700;9.210;2024-03-23T12:50:13;12.10;53.50
32139;DHT22;18644;48.700;9.210;2024-03-23T12:52:39;12.10;53.60
32139;DHT22;18644;48.700;9.210;2024-03-23T12:55:07;12.20;53.50
32139;DHT22;18644;48.700;9.210;2024-03-23T12:57:33;12.20;53.40
32139;DHT22;18644;48.700;9.210;2024-03-23T13:00:00;12.30;53.00
32139;DHT22;18644;48.700;9.210;2024-03-23T13:02:31;12.30;52.60
32139;DHT22;18644;48.700;9.210;2024-03-23T13:05:01;12.30;52.70
32139;DHT22;18644;48.700;9.210;2024-03-23T13:07:28;12.30;53.10
32139;DHT22;18644;48.700;9.210;2024-03-23T13:09:55;12.30;53.10
32139;DHT22;18644;48.700;9.210;2024-03-23T13:12:22;12.30;53.00
32139;DHT22;18644;48.700;9.210;2024-03-23T13:14:49;12.30;53.20
32139;DHT22;18644;48.700;9.210;2024-03-23T13:17:15;12.40;53.60
32139;DHT22;18644;48.700;9.210;2024-03-23T13:19:42;12.40;53.50
32139;DHT22;18644;48.700;9.210;2024-03-23T13:22:10;12.50;53.40
32139;DHT22;18644;48.700;9.210;2024-03-23T13:24:37;12.60;53.50
32139;DHT22;18644;48.700;9.210;2024-03-23T13:27:04;12.60;53.60
32139;DHT22;18644;48.700;9.210;2024-03-23T13:29:33;12.80;53.60
32139;DHT22;18644;48.700;9.210;2024-03-23T13:32:00;12.80;53.30
32139;DHT22;18644;48.700;9.210;2024-03-23T13:34:27;12.90;52.70
32139;DHT22;18644;48.700;9.210;2024-03-23T13:36:57;12.90;51.00
32139;DHT22;18644;48.700;9.210;2024-03-23T13:39:26;12.80;50.20
32139;DHT22;18644;48.700;9.210;2024-03-23T13:41:53;12.70;49.90
32139;DHT22;18644;48.700;9.210;2024-03-23T13:44:21;12.70;50.10
32139;DHT22;18644;48.700;9.210;2024-03-23T13:46:47;12.70;50.90
32139;DHT22;18644;48.700;9.210;2024-03-23T13:49:25;12.70;51.40
32139;DHT22;18644;48.700;9.210;2024-03-23T13:51:52;12.90;50.70
32139;DHT22;18644;48.700;9.210;2024-03-23T13:54:19;13.00;50.30
32139;DHT22;18644;48.700;9.210;2024-03-23T13:56:48;13.00;50.10
32139;DHT22;18644;48.700;9.210;2024-03-23T13:59:15;13.10;50.10
32139;DHT22;18644;48.700;9.210;2024-03-23T14:01:41;13.10;50.10
32139;DHT22;18644;48.700;9.210;2024-03-23T14:04:08;13.20;50.70
32139;DHT22;18644;48.700;9.210;2024-03-23T14:06:35;13.30;50.70
32139;DHT22;18644;48.700;9.210;2024-03-23T14:09:02;13.40;50.10
32139;DHT22;18644;48.700;9.210;2024-03-23T14:11:29;13.50;49.90
32139;DHT22;18644;48.700;9.210;2024-03-23T14:13:57;13.60;49.90
32139;DHT22;18644;48.700;9.210;2024-03-23T14:16:23;13.60;49.30
32139;DHT22;18644;48.700;9.210;2024-03-23T14:18:50;13.60;48.70
32139;DHT22;18644;48.700;9.210;2024-03-23T14:21:16;13.60;48.40
32139;DHT22;18644;48.700;9.210;2024-03-23T14:23:44;13.40;48.30
32139;DHT22;18644;48.700;9.210;2024-03-23T14:26:10;13.30;48.50
32139;DHT22;18644;48.700;9.210;2024-03-23T14:28:37;13.10;48.60
32139;DHT22;18644;48.700;9.210;2024-03-23T14:31:04;13.00;49.40
32139;DHT22;18644;48.700;9.210;2024-03-23T14:33:36;13.00;49.80
32139;DHT22;18644;48.700;9.210;2024-03-23T14:36:03;13.00;50.30
32139;DHT22;18644;48.700;9.210;2024-03-23T14:38:31;13.00;50.40
32139;DHT22;18644;48.700;9.210;2024-03-23T14:40:58;13.00;50.20
32139;DHT22;18644;48.700;9.210;2024-03-23T14:43:25;13.00;50.00
32139;DHT22;18644;48.700;9.210;2024-03-23T14:46:09;13.00;49.90
32139;DHT22;18644;48.700;9.210;2024-03-23T14:48:37;12.90;49.90
32139;DHT22;18644;48.700;9.210;2024-03-23T14:51:03;12.80;49.50
32139;DHT22;18644;48.700;9.210;2024-03-23T14:53:32;12.70;49.70
32139;DHT22;18644;48.700;9.210;2024-03-23T14:55:58;12.70;50.00
32139;DHT22;18644;48.700;9.210;2024-03-23T14:58:26;12.60;50.10
32139;DHT22;18644;48.700;9.210;2024-03-23T15:00:53;12.60;49.50
32139;DHT22;18644;48.700;9.210;2024-03-23T15:03:21;12.50;49.40
32139;DHT22;18644;48.700;9.210;2024-03-23T15:05:53;12.40;49.20
32139;DHT22;18644;48.700;9.210;2024-03-23T15:08:21;12.30;49.20
32139;DHT22;18644;48.700;9.210;2024-03-23T15:10:47;12.20;49.30
32139;DHT22;18644;48.700;9.210;2024-03-23T15:13:14;12.10;49.40
32139;DHT22;18644;48.700;9.210;2024-03-23T15:15:40;12.00;49.80
32139;DHT22;18644;48.700;9.210;2024-03-23T15:18:09;11.90;50.30
32139;DHT22;18644;48.700;9.210;2024-03-23T15:20:37;11.70;50.90
32139;DHT22;18644;48.700;9.210;2024-03-23T15:23:04;11.70;51.40
32139;DHT22;18644;48.700;9.210;2024-03-23T15:25:30;11.60;51.80
32139;DHT22;18644;48.700;9.210;2024-03-23T15:27:57;11.50;52.10
32139;DHT22;18644;48.700;9.210;2024-03-23T15:30:24;11.50;52.30
32139;DHT22;18644;48.700;9.210;2024-03-23T15:32:51;11.50;52.40
32139;DHT22;18644;48.700;9.210;2024-03-23T15:35:18;11.50;52.50
32139;DHT22;18644;48.700;9.210;2024-03-23T15:37:48;11.50;52.50
32139;DHT22;18644;48.700;9.210;2024-03-23T15:40:14;11.50;52.90
32139;DHT22;18644;48.700;9.210;2024-03-23T15:42:41;11.50;53.10
32139;DHT22;18644;48.700;9.210;2024-03-23T15:45:09;11.60;53.20
32139;DHT22;18644;48.700;9.210;2024-03-23T15:47:38;11.70;53.10
32139;DHT22;18644;48.700;9.210;2024-03-23T15:50:05;11.70;53.00
32139;DHT22;18644;48.700;9.210;2024-03-23T15:52:35;11.80;52.90
32139;DHT22;18644;48.700;9.210;2024-03-23T15:55:03;11.80;52.70
32139;DHT22;18644;48.700;9.210;2024-03-23T15:57:33;11.80;52.50
32139;DHT22;18644;48.700;9.210;2024-03-23T16:00:00;11.80;52.10
32139;DHT22;18644;48.700;9.210;2024-03-23T16:02:27;11.70;51.90
32139;DHT22;18644;48.700;9.210;2024-03-23T16:04:53;11.70;51.90
32139;DHT22;18644;48.700;9.210;2024-03-23T16:07:20;11.60;51.90
32139;DHT22;18644;48.700;9.210;2024-03-23T16:09:46;11.60;51.70
32139;DHT22;18644;48.700;9.210;2024-03-23T16:12:14;11.50;51.10
32139;DHT22;18644;48.700;9.210;2024-03-23T16:14:40;11.40;51.10
32139;DHT22;18644;48.700;9.210;2024-03-23T16:17:08;11.30;51.30
32139;DHT22;18644;48.700;9.210;2024-03-23T16:19:35;11.30;51.40
32139;DHT22;18644;48.700;9.210;2024-03-23T16:22:02;11.30;51.30
32139;DHT22;18644;48.700;9.210;2024-03-23T16:24:28;11.20;51.40
32139;DHT22;18644;48.700;9.210;2024-03-23T16:26:55;11.10;51.60